Tiempo atmosférico en la estación meteorológica de Serradilla, Cáceres (410 m.)



Fecha
DESCASC
Temp. máxima en grados centígrados (hora)
DESCASC
Temp. mínima en grados centígrados (hora)
DESCASC
Temp. media en grados centígrados
DESCASC
Racha de viento máxima en m/sg (hora)
DESCASC
Velocidad máxima media en intervalos de 10 minutos(hora)
DESCASC
Precipitaciones diarias en mm
DESCASC
Precipitaciones de 00:00 a 06:00 en mm
DESCASC
Precipitaciones de 06:00 a 12:00 en mm
DESCASC
Precipitaciones de 12:00 a 18:00 en mm
DESCASC
Precipitaciones de 18:00 a 24:00 en mm
DESCASC
24-05-2020 32 (17:10) 19.2 (06:10) 25.6 13.06 (09:40) 8.06 (09:40) 0 0 0 0 0
23-05-2020 31.3 (16:10) 20.1 (01:40) 25.7 11.11 (04:50) 6.39 (04:20) 0 0 0 0 0
22-05-2020 30.7 (16:50) 14.7 (06:20) 22.7 6.11 (17:00) 3.33 (17:30) 0 0 0 0 0
21-05-2020 30.4 (16:00) 15 (00:00) 22.7 8.89 (00:10) 5 (00:10) 0 0 0 0 0
20-05-2020 30.4 (17:40) 14.7 (00:00) 22.5 8.33 (23:59) 5.28 (23:59) 0 0 0 0 0
19-05-2020 30.2 (17:30) 13.2 (00:00) 21.7 6.11 (00:30) 3.89 (00:20) 0 0 0 0 0
18-05-2020 27.6 (18:00) 11.9 (00:00) 19.8 7.22 (23:59) 3.89 (23:59) 0 0 0 0 0
17-05-2020 23.3 (18:10) 12.5 (00:00) 17.9 9.17 (10:40) 5.28 (10:40) 0 0 0 0 0
16-05-2020 21.7 (16:50) 11.4 (00:00) 16.6 8.89 (10:50) 5.28 (10:20) 0 0 0 0 0
15-05-2020 18.3 (17:50) 10.1 (00:00) 14.2 9.44 (19:30) 5 (19:50) 3.6 0 0 0 3.6
14-05-2020 16 (16:30) 9.3 (00:00) 12.7 8.33 (02:40) 5.28 (17:30) 7.2 5.2 0 2 0
13-05-2020 18.6 (17:10) 10.4 (00:00) 14.5 9.72 (19:30) 5.83 (19:30) 7.6 0.2 0.4 0 7
12-05-2020 17.1 (14:40) 11 (00:00) 14.1 5.56 (15:20) 3.33 (15:20) 7 0 1 6 0
11-05-2020 18.2 (14:20) 11.6 (00:00) 14.9 8.33 (13:10) 5 (13:50) 16 3.8 8.6 1 2.6
10-05-2020 18.7 (17:30) 9.7 (00:00) 14.2 9.44 (10:40) 5.28 (11:50) 3.8 0.2 3.6 0 0
09-05-2020 20.8 (15:40) 11.5 (00:00) 16.1 10.56 (17:20) 5.56 (17:20) 5 0 0 1.6 3.4
08-05-2020 26.5 (16:20) 16.5 (00:00) 21.5 7.78 (16:50) 4.44 (16:30) 0 0 0 0 0
07-05-2020 27.7 (18:50) 14 (00:00) 20.9 11.94 (11:20) 7.5 (11:20) 0 0 0 0 0
06-05-2020 24.6 (18:10) 10.1 (00:00) 17.4 5.83 (04:10) 3.06 (02:40) 0 0 0 0 0
05-05-2020 22.8 (18:00) 10 (00:00) 16.4 6.11 (16:00) 3.61 (17:10) 0 0 0 0 0
04-05-2020 25.9 (13:40) 14.8 (00:00) 20.3 12.78 (17:00) 8.06 (18:20) 0 0 0 0 0
03-05-2020 29.7 (17:40) 13.8 (00:00) 21.8 7.5 (13:20) 5 (10:00) 0 0 0 0 0
02-05-2020 25.8 (18:20) 11.6 (00:00) 18.7 5 (13:50) 3.06 (01:40) 0 0 0 0 0
01-05-2020 21.5 (18:50) 11.1 (00:00) 16.3 7.5 (16:10) 4.17 (16:00) 0 0 0 0 0
30-04-2020 18.2 (15:50) 10.7 (00:00) 14.5 9.72 (14:20) 5.56 (13:30) 0 0 0 0 0
29-04-2020 18.3 (15:00) 6.9 (00:00) 12.6 10.83 (17:10) 6.11 (17:10) 0.2 0 0 0 0.2
28-04-2020 17.1 (15:40) 6.6 (00:00) 11.9 8.33 (17:30) 5.28 (14:50) 0.2 0 0 0.2 0
27-04-2020 17.7 (16:00) 9 (00:00) 13.4 9.72 (17:10) 4.17 (15:30) 0 0 0 0 0
26-04-2020 18 (16:50) 8.8 (00:00) 13.4 9.72 (17:00) 5 (03:00) 0 0 0 0 0

Gráficas

Temp. máximas Temp. mínimas Temp. medias Precipitaciones Rachas de viento máximas Velocidades máximas media en intervalos de 10 minutos

Datos horarios

Fecha y hora oficial Temperatura (ºC) Velocidad del viento (km/h) Dirección del viento Racha (km/h) Dirección de racha Precipitación (mm) Presión (hPa) Tendencia (hPa) Humedad (%)
2020-05-25 23:00:00 24.3 14 Nordeste 26 Nordeste 0 -- -- 58
2020-05-25 22:00:00 25.6 4 Norte 14 Norte 0 -- -- 53
2020-05-25 21:00:00 27.8 8 Norte 23 Norte 0 -- -- 46
2020-05-25 20:00:00 29.2 13 Norte 27 Norte 0 -- -- 43
2020-05-25 19:00:00 30.5 14 Noroeste 23 Noroeste 0 -- -- 38
2020-05-25 18:00:00 32.1 7 Oeste 17 Noroeste 0 -- -- 32
2020-05-25 17:00:00 32.8 5 Sur 19 Oeste 0 -- -- 36
2020-05-25 16:00:00 32.1 4 Sudoeste 12 Nordeste 0 -- -- 33
2020-05-25 15:00:00 30.5 3 Este 12 Nordeste 0 -- -- 43
2020-05-25 14:00:00 29.3 7 Este 18 Este 0 -- -- 45
2020-05-25 13:00:00 27.8 10 Este 22 Nordeste 0 -- -- 49
2020-05-25 12:00:00 25.9 14 Nordeste 23 Nordeste 0 -- -- 55
2020-05-25 11:00:00 24.6 13 Nordeste 25 Nordeste 0 -- -- 61
2020-05-25 10:00:00 22.3 15 Este 28 Este 0 -- -- 65
2020-05-25 09:00:00 19.4 21 Nordeste 31 Nordeste 0 -- -- 74
2020-05-25 08:00:00 19.7 12 Nordeste 17 Nordeste 0 -- -- 73
2020-05-25 07:00:00 18.9 2 Sudeste 9 Este 0 -- -- 76
2020-05-25 06:00:00 18.6 5 Nordeste 9 Este 0 -- -- 80
2020-05-25 05:00:00 18.8 4 Este 9 Este 0 -- -- 81
2020-05-25 04:00:00 20.3 3 Este 10 Oeste 0 -- -- 75
2020-05-25 03:00:00 21.7 9 Sudoeste 11 Sudoeste 0 -- -- 71
2020-05-25 02:00:00 25.4 6 Oeste 14 Sudoeste 0 -- -- 51
2020-05-25 01:00:00 25 3 Oeste 9 Sudoeste 0 -- -- 50
2020-05-25 00:00:00 24.9 4 Sudeste 11 Norte 0 -- -- 53
2020-05-24 23:00:00 25.3 7 Noroeste 14 Noroeste 0 -- -- 54
2020-05-24 22:00:00 26.2 9 Noroeste 14 Noroeste 0 -- -- 52
2020-05-24 21:00:00 28.2 7 Norte 15 Noroeste 0 -- -- 49
2020-05-24 20:00:00 29.5 6 Norte 15 Norte 0 -- -- 46
2020-05-24 19:00:00 30.8 5 Norte 15 Norte 0 -- -- 44
2020-05-24 18:00:00 30.5 6 Norte 13 Oeste 0 -- -- 47
2020-05-24 17:00:00 31.8 8 Sudoeste 15 Sudoeste 0 -- -- 39
2020-05-24 16:00:00 30.1 8 Nordeste 21 Este 0 -- -- 41
2020-05-24 15:00:00 29.3 13 Nordeste 23 Este 0 -- -- 44
2020-05-24 14:00:00 28.3 16 Nordeste 33 Nordeste 0 -- -- 46
2020-05-24 13:00:00 27.1 20 Nordeste 37 Nordeste 0 -- -- 49
2020-05-24 12:00:00 25.3 24 Nordeste 40 Nordeste 0 -- -- 52
2020-05-24 11:00:00 24.1 23 Este 39 Nordeste 0 -- -- 52
2020-05-24 10:00:00 22.5 28 Nordeste 47 Nordeste 0 -- -- 58
2020-05-24 09:00:00 21.1 25 Nordeste 40 Este 0 -- -- 65
2020-05-24 08:00:00 19.6 14 Nordeste 27 Nordeste 0 -- -- 75
2020-05-24 07:00:00 19.5 11 Este 28 Nordeste 0 -- -- 75
2020-05-24 06:00:00 19.3 15 Nordeste 26 Nordeste 0 -- -- 79
2020-05-24 05:00:00 21.2 13 Nordeste 21 Nordeste 0 -- -- 69
2020-05-24 04:00:00 21.7 2 Noroeste 18 Noroeste 0 -- -- 65
2020-05-24 03:00:00 22.4 6 Sudeste 26 Norte 0 -- -- 61
2020-05-24 02:00:00 22.9 14 Noroeste 26 Noroeste 0 -- -- 61
2020-05-24 01:00:00 23.7 18 Norte 32 Norte 0 -- -- 58
2020-05-24 00:00:00 25.7 19 Norte 34 Norte 0 -- -- 50
2020-05-23 23:00:00 26 15 Noroeste 26 Noroeste 0 -- -- 48
2020-05-23 22:00:00 25.8 6 Oeste 13 Oeste 0 -- -- 52
2020-05-23 21:00:00 28 5 Oeste 17 Oeste 0 -- -- 47
2020-05-23 20:00:00 29.3 8 Oeste 19 Oeste 0 -- -- 42
2020-05-23 19:00:00 30.5 10 Noroeste 21 Sudoeste 0 -- -- 37
2020-05-23 18:00:00 31.2 8 Oeste 19 Oeste 0 -- -- 36
2020-05-23 17:00:00 31.2 9 Noroeste 18 Oeste 0 -- -- 39
2020-05-23 16:00:00 31.1 5 Oeste 18 Noroeste 0 -- -- 38
2020-05-23 15:00:00 29.6 10 Noroeste 18 Noroeste 0 -- -- 42
2020-05-23 14:00:00 28.7 8 Noroeste 15 Noroeste 0 -- -- 45
2020-05-23 13:00:00 27.6 9 Norte 17 Noroeste 0 -- -- 48
2020-05-23 12:00:00 26.3 7 Noroeste 12 Noroeste 0 -- -- 53
2020-05-23 11:00:00 24.9 4 Este 12 Sudeste 0 -- -- 59
2020-05-23 10:00:00 23 4 Sudeste 10 Sur 0 -- -- 64
2020-05-23 09:00:00 21.1 2 Este 25 Noroeste 0 -- -- 63
2020-05-23 08:00:00 20.7 15 Noroeste 31 Norte 0 -- -- 62
2020-05-23 07:00:00 20.7 18 Norte 31 Noroeste 0 -- -- 60
2020-05-23 06:00:00 21.5 19 Norte 37 Norte 0 -- -- 58
2020-05-23 05:00:00 21.2 20 Norte 40 Noroeste 0 -- -- 63
2020-05-23 04:00:00 21.5 21 Noroeste 37 Noroeste 0 -- -- 63
2020-05-23 03:00:00 21.2 6 Oeste 16 Sudoeste 0 -- -- 57
2020-05-23 02:00:00 20.7 4 Sudoeste 13 Sudoeste 0 -- -- 45
2020-05-23 01:00:00 23 7 Oeste 17 Oeste 0 -- -- 36
2020-05-23 00:00:00 24 6 Oeste 17 Sudoeste 0 -- -- 34
2020-05-22 23:00:00 24.5 9 Noroeste 13 Noroeste 0 -- -- 33
2020-05-22 22:00:00 24.8 6 Noroeste 10 Noroeste 0 -- -- 35
2020-05-22 21:00:00 27.1 6 Noroeste 15 Oeste 0 -- -- 40
2020-05-22 20:00:00 28.4 6 Oeste 17 Oeste 0 -- -- 40
2020-05-22 19:00:00 30.1 10 Oeste 22 Oeste 0 -- -- 38
2020-05-22 18:00:00 30.5 11 Oeste 21 Sudoeste 0 -- -- 36
2020-05-22 17:00:00 30.6 10 Oeste 22 Oeste 0 -- -- 36
2020-05-22 16:00:00 30 8 Oeste 20 Oeste 0 -- -- 39
2020-05-22 15:00:00 29.4 8 Sudoeste 19 Sudoeste 0 -- -- 33
2020-05-22 14:00:00 28.6 12 Sudoeste 17 Sur 0 -- -- 38
2020-05-22 13:00:00 27.4 6 Sudoeste 13 Sudoeste 0 -- -- 37
2020-05-22 12:00:00 25.5 6 Sudoeste 12 Sudoeste 0 -- -- 42
2020-05-22 11:00:00 23 3 Oeste 6 Oeste 0 -- -- 60
2020-05-22 10:00:00 20.3 4 Sudeste 8 Este 0 -- -- 70
2020-05-22 09:00:00 17.2 2 Sudeste 4 Este 0 -- -- 80
2020-05-22 08:00:00 15.8 0 Calma 2 Este 0 -- -- 77
2020-05-22 07:00:00 14.9 0 Calma 4 Nordeste 0 -- -- 79
2020-05-22 06:00:00 15.1 3 Nordeste 5 Nordeste 0 -- -- 77
2020-05-22 05:00:00 15.4 3 Nordeste 5 Nordeste 0 -- -- 75
2020-05-22 04:00:00 15.6 4 Nordeste 6 Nordeste 0 -- -- 74
2020-05-22 03:00:00 17 4 Este 6 Nordeste 0 -- -- 69
2020-05-22 02:00:00 18.6 3 Noroeste 10 Sudoeste 0 -- -- 59
2020-05-22 01:00:00 20.5 9 Sudoeste 14 Sudoeste 0 -- -- 46
2020-05-22 00:00:00 21.9 10 Oeste 23 Noroeste 0 -- -- 50
2020-05-21 23:00:00 23 11 Noroeste 22 Noroeste 0 -- -- 47
2020-05-21 22:00:00 22.9 10 Noroeste 17 Noroeste 0 -- -- 46
2020-05-21 21:00:00 25.8 7 Noroeste 18 Noroeste 0 -- -- 41
2020-05-21 20:00:00 28.1 6 Oeste 17 Oeste 0 -- -- 33
2020-05-21 19:00:00 29.4 10 Oeste 22 Sudoeste 0 -- -- 34
2020-05-21 18:00:00 30.1 10 Oeste 21 Oeste 0 -- -- 32
2020-05-21 17:00:00 30.3 12 Sudoeste 24 Oeste 0 -- -- 33
2020-05-21 16:00:00 30.4 10 Sudoeste 20 Sudoeste 0 -- -- 36
2020-05-21 15:00:00 29.4 11 Sudoeste 21 Oeste 0 -- -- 39
2020-05-21 14:00:00 28.7 10 Sudoeste 21 Sudoeste 0 -- -- 33
2020-05-21 13:00:00 27.8 9 Sudoeste 16 Sudoeste 0 -- -- 40
2020-05-21 12:00:00 26.1 5 Sudoeste 11 Sudoeste 0 -- -- 52
2020-05-21 11:00:00 24.2 0 Calma 6 Este 0 -- -- 64
2020-05-21 10:00:00 20.6 0 Calma 5 Sudoeste 0 -- -- 73
2020-05-21 09:00:00 17.4 0 Calma 5 Este 0 -- -- 83
2020-05-21 08:00:00 15.6 4 Nordeste 7 Este 0 -- -- 89
2020-05-21 07:00:00 15.1 5 Nordeste 6 Este 0 -- -- 90
2020-05-21 06:00:00 15.6 0 Calma 6 Este 0 -- -- 89
2020-05-21 05:00:00 16.1 3 Nordeste 5 Este 0 -- -- 89
2020-05-21 04:00:00 17 0 Calma 11 Sudoeste 0 -- -- 85
2020-05-21 03:00:00 19.2 6 Sudoeste 18 Oeste 0 -- -- 76
2020-05-21 02:00:00 19 10 Sudoeste 17 Sudoeste 0 -- -- 77
2020-05-21 01:00:00 19.5 11 Sudoeste 32 Sudoeste 0 -- -- 71
2020-05-21 00:00:00 22.9 19 Sudoeste 30 Oeste 0 -- -- 60
2020-05-20 23:00:00 21.9 9 Oeste 16 Sudoeste 0 -- -- 56
2020-05-20 22:00:00 23.5 7 Oeste 18 Oeste 0 -- -- 51
2020-05-20 21:00:00 26 9 Oeste 16 Oeste 0 -- -- 47
2020-05-20 20:00:00 28.1 10 Oeste 20 Oeste 0 -- -- 36
2020-05-20 19:00:00 29.3 10 Sudoeste 21 Sudoeste 0 -- -- 35
2020-05-20 18:00:00 29.8 8 Sudoeste 19 Sudoeste 0 -- -- 36
2020-05-20 17:00:00 30.2 10 Sudoeste 22 Sudoeste 0 -- -- 34
2020-05-20 16:00:00 30 7 Noroeste 19 Sudoeste 0 -- -- 31
2020-05-20 15:00:00 29.3 9 Oeste 21 Sudoeste 0 -- -- 32
2020-05-20 14:00:00 28.6 8 Sudoeste 17 Sudoeste 0 -- -- 45
2020-05-20 13:00:00 27.2 5 Sudoeste 11 Sudoeste 0 -- -- 51
2020-05-20 12:00:00 25.5 4 Sur 12 Sudeste 0 -- -- 54
2020-05-20 11:00:00 23.3 5 Sudeste 8 Sudeste 0 -- -- 57
2020-05-20 10:00:00 20.8 3 Sudeste 5 Este 0 -- -- 63
2020-05-20 09:00:00 17.6 0 Calma 3 Sudeste 0 -- -- 71
2020-05-20 08:00:00 15.5 3 Este 5 Nordeste 0 -- -- 80
2020-05-20 07:00:00 15.1 4 Este 5 Este 0 -- -- 78
2020-05-20 06:00:00 15.7 2 Este 5 Sudeste 0 -- -- 76
2020-05-20 05:00:00 15.7 2 Este 8 Nordeste 0 -- -- 77
2020-05-20 04:00:00 16.3 5 Nordeste 7 Nordeste 0 -- -- 72
2020-05-20 03:00:00 17 2 Nordeste 7 Este 0 -- -- 70
2020-05-20 02:00:00 18.2 3 Nordeste 11 Sudoeste 0 -- -- 70
2020-05-20 01:00:00 20.3 7 Sudoeste 14 Sudoeste 0 -- -- 59
2020-05-20 00:00:00 21.9 10 Oeste 16 Oeste 0 -- -- 50
2020-05-19 23:00:00 22.4 7 Oeste 10 Oeste 0 -- -- 52
2020-05-19 22:00:00 23.2 5 Oeste 12 Sudoeste 0 -- -- 48
2020-05-19 21:00:00 26.8 5 Sudoeste 9 Sudoeste 0 -- -- 43
2020-05-19 20:00:00 27.7 4 Oeste 12 Sudoeste 0 -- -- 35
2020-05-19 19:00:00 29.1 4 Noroeste 19 Sudoeste 0 -- -- 32
2020-05-19 18:00:00 30.1 7 Sudoeste 14 Sudoeste 0 -- -- 32
2020-05-19 17:00:00 29.9 9 Sudoeste 18 Sudoeste 0 -- -- 31
2020-05-19 16:00:00 29.3 8 Oeste 19 Sudoeste 0 -- -- 33
2020-05-19 15:00:00 28.8 5 Sur 13 Sudoeste 0 -- -- 32
2020-05-19 14:00:00 28 5 Sudeste 12 Este 0 -- -- 32
2020-05-19 13:00:00 26.1 6 Este 17 Sudeste 0 -- -- 44
2020-05-19 12:00:00 24.7 7 Este 19 Nordeste 0 -- -- 44
2020-05-19 11:00:00 22.6 11 Nordeste 16 Este 0 -- -- 53
2020-05-19 10:00:00 20.3 9 Nordeste 14 Nordeste 0 -- -- 58
2020-05-19 09:00:00 16.7 6 Este 10 Este 0 -- -- 66
2020-05-19 08:00:00 14.2 0 Calma 5 Sudeste 0 -- -- 72
2020-05-19 07:00:00 13.2 3 Este 7 Este 0 -- -- 75
2020-05-19 06:00:00 14.7 4 Este 8 Este 0 -- -- 68
2020-05-19 05:00:00 14.3 4 Este 9 Este 0 -- -- 70
2020-05-19 04:00:00 15 6 Nordeste 13 Este 0 -- -- 69
2020-05-19 03:00:00 19.7 6 Norte 19 Norte 0 -- -- 43
2020-05-19 02:00:00 20.1 6 Nordeste 21 Noroeste 0 -- -- 41
2020-05-19 01:00:00 21.3 12 Norte 22 Norte 0 -- -- 39
2020-05-19 00:00:00 22.2 14 Noroeste 26 Noroeste 0 -- -- 37
2020-05-18 23:00:00 22.8 10 Norte 17 Norte 0 -- -- 37
2020-05-18 22:00:00 22.6 9 Noroeste 17 Noroeste 0 -- -- 40
2020-05-18 21:00:00 24.6 9 Noroeste 17 Noroeste 0 -- -- 40
2020-05-18 20:00:00 25.7 8 Noroeste 17 Noroeste 0 -- -- 37
2020-05-18 19:00:00 27.4 6 Oeste 20 Noroeste 0 -- -- 33
2020-05-18 18:00:00 27.6 8 Noroeste 18 Noroeste 0 -- -- 34
2020-05-18 17:00:00 27.1 6 Norte 17 Norte 0 -- -- 31
2020-05-18 16:00:00 27.2 6 Noroeste 19 Sur 0 -- -- 35
2020-05-18 15:00:00 26.8 8 Sur 15 Sudoeste 0 -- -- 30
2020-05-18 14:00:00 26 4 Sudoeste 18 Sudoeste 0 -- -- 32
2020-05-18 13:00:00 24.4 7 Sudoeste 18 Sudoeste 0 -- -- 45
2020-05-18 12:00:00 22.6 8 Sudoeste 13 Sudoeste 0 -- -- 53
2020-05-18 11:00:00 20.6 5 Sudoeste 10 Sur 0 -- -- 57
2020-05-18 10:00:00 17.9 2 Sudoeste 5 Sur 0 -- -- 71
2020-05-18 09:00:00 15.3 2 Sur 4 Sudoeste 0 -- -- 75
2020-05-18 08:00:00 13.5 0 Calma 4 Oeste 0 -- -- 83
2020-05-18 07:00:00 12.6 2 Oeste 6 Este 0 -- -- 79
2020-05-18 06:00:00 12.8 2 Nordeste 6 Sudeste 0 -- -- 82
2020-05-18 05:00:00 13.2 5 Este 8 Este 0 -- -- 82
2020-05-18 04:00:00 16.2 5 Norte 10 Norte 0 -- -- 65
2020-05-18 03:00:00 15.3 3 Nordeste 5 Noroeste 0 -- -- 65
2020-05-18 02:00:00 16.3 0 Calma 12 Norte 0 -- -- 67
2020-05-18 01:00:00 16.9 5 Norte 9 Norte 0 -- -- 64
2020-05-18 00:00:00 17.5 6 Norte 15 Norte 0 -- -- 60
2020-05-17 23:00:00 18.8 12 Noroeste 19 Noroeste 0 -- -- 52
2020-05-17 22:00:00 18.7 8 Noroeste 13 Noroeste 0 -- -- 59
2020-05-17 21:00:00 21.5 0 Calma 8 Sudoeste 0 -- -- 51
2020-05-17 20:00:00 22.1 4 Sur 11 Oeste 0 -- -- 48
2020-05-17 19:00:00 23.2 0 Calma 13 Noroeste 0 -- -- 47
2020-05-17 18:00:00 22.8 4 Noroeste 16 Norte 0 -- -- 46
2020-05-17 17:00:00 22.4 5 Noroeste 18 Este 0 -- -- 49
2020-05-17 16:00:00 22.3 11 Este 22 Nordeste 0 -- -- 44
2020-05-17 15:00:00 21.6 13 Este 23 Este 0 -- -- 51
2020-05-17 14:00:00 20.9 12 Este 25 Nordeste 0 -- -- 51
2020-05-17 13:00:00 20 12 Nordeste 28 Este 0 -- -- 53
2020-05-17 12:00:00 18.5 15 Nordeste 30 Nordeste 0 -- -- 62
2020-05-17 11:00:00 17.3 18 Nordeste 33 Nordeste 0 -- -- 59
2020-05-17 10:00:00 16.5 14 Nordeste 28 Nordeste 0 -- -- 60
2020-05-17 09:00:00 14.9 12 Este 21 Nordeste 0 -- -- 71
2020-05-17 08:00:00 13.6 8 Este 15 Este 0 -- -- 74
2020-05-17 07:00:00 12.6 6 Nordeste 15 Nordeste 0 -- -- 81
2020-05-17 06:00:00 13 7 Este 20 Nordeste 0 -- -- 82
2020-05-17 05:00:00 13.9 13 Nordeste 19 Nordeste 0 -- -- 78
2020-05-17 04:00:00 14.6 14 Norte 22 Norte 0 -- -- 72
2020-05-17 03:00:00 14.3 6 Norte 10 Norte 0 -- -- 75
2020-05-17 02:00:00 14.5 6 Nordeste 8 Nordeste 0 -- -- 75
2020-05-17 01:00:00 15 7 Norte 14 Nordeste 0 -- -- 73
2020-05-17 00:00:00 16.2 9 Nordeste 27 Nordeste 0 -- -- 69
2020-05-16 23:00:00 17.6 10 Norte 24 Noroeste 0 -- -- 61
2020-05-16 22:00:00 17.8 7 Noroeste 10 Oeste 0 -- -- 64
2020-05-16 21:00:00 19.9 0 Calma 5 Nordeste 0 -- -- 57
2020-05-16 20:00:00 19.7 3 Nordeste 16 Nordeste 0 -- -- 58
2020-05-16 19:00:00 21.1 9 Nordeste 22 Nordeste 0 -- -- 51
2020-05-16 18:00:00 19.1 12 Nordeste 31 Norte 0 -- -- 61
2020-05-16 17:00:00 21.3 11 Norte 24 Nordeste 0 -- -- 54
2020-05-16 16:00:00 20.3 9 Nordeste 21 Este 0 -- -- 59
2020-05-16 15:00:00 19.9 11 Nordeste 21 Nordeste 0 -- -- 58
2020-05-16 14:00:00 18.9 12 Nordeste 30 Este 0 -- -- 66
2020-05-16 13:00:00 19.1 17 Este 29 Este 0 -- -- 64
2020-05-16 12:00:00 17.7 17 Este 30 Nordeste 0 -- -- 69
2020-05-16 11:00:00 16.5 17 Nordeste 32 Nordeste 0 -- -- 75
2020-05-16 10:00:00 15.3 17 Nordeste 28 Nordeste 0 -- -- 81
2020-05-16 09:00:00 13.6 9 Nordeste 15 Nordeste 0 -- -- 88
2020-05-16 08:00:00 12.6 8 Nordeste 13 Nordeste 0 -- -- 91
2020-05-16 07:00:00 12.4 6 Nordeste 15 Nordeste 0 -- -- 91
2020-05-16 06:00:00 12.4 9 Nordeste 19 Nordeste 0 -- -- 92
2020-05-16 05:00:00 12.2 12 Nordeste 19 Nordeste 0 -- -- 93
2020-05-16 04:00:00 11.5 8 Nordeste 16 Nordeste 0 -- -- 96
2020-05-16 03:00:00 11.5 9 Norte 18 Nordeste 0 -- -- 95
2020-05-16 02:00:00 11.8 6 Nordeste 17 Nordeste 0 -- -- 98
2020-05-16 01:00:00 12.2 6 Este 9 Este 0 -- -- 97
2020-05-16 00:00:00 12.2 2 Este 12 Nordeste 0 -- -- 97
2020-05-15 23:00:00 12.4 5 Nordeste 13 Este 0 -- -- 94
2020-05-15 22:00:00 12.1 6 Nordeste 9 Nordeste 0 -- -- 96
2020-05-15 21:00:00 12.2 4 Norte 17 Este 0.8 -- -- 95
2020-05-15 20:00:00 12.1 17 Este 34 Este 2.8 -- -- 91
2020-05-15 19:00:00 18.3 11 Norte 17 Noroeste 0 -- -- 66
2020-05-15 18:00:00 18.2 6 Norte 19 Noroeste 0 -- -- 65
2020-05-15 17:00:00 17.8 10 Noroeste 17 Noroeste 0 -- -- 61
2020-05-15 16:00:00 17.2 12 Norte 22 Norte 0 -- -- 67
2020-05-15 15:00:00 17.5 13 Norte 19 Norte 0 -- -- 71
2020-05-15 14:00:00 17.7 5 Norte 16 Noroeste 0 -- -- 65
2020-05-15 13:00:00 16.8 4 Sudoeste 7 Norte 0 -- -- 73
2020-05-15 12:00:00 15.4 3 Sur 10 Sudoeste 0 -- -- 78
2020-05-15 11:00:00 14.4 4 Sur 9 Sudeste 0 -- -- 80
2020-05-15 10:00:00 13.2 0 Calma 4 Oeste 0 -- -- 84
2020-05-15 09:00:00 12 0 Calma 4 Norte 0 -- -- 94
2020-05-15 08:00:00 10.7 0 Calma 5 Este 0 -- -- 99
2020-05-15 07:00:00 10.3 2 Nordeste 8 Nordeste 0 -- -- 99
2020-05-15 06:00:00 10.4 5 Nordeste 8 Nordeste 0 -- -- 98
2020-05-15 05:00:00 11.4 3 Nordeste 6 Nordeste 0 -- -- 93
2020-05-15 04:00:00 12.2 4 Este 10 Este 0 -- -- 92
2020-05-15 03:00:00 12.4 4 Este 12 Este 0 -- -- 91
2020-05-15 02:00:00 12.3 4 Este 15 Nordeste 0 -- -- 93
2020-05-15 01:00:00 12.4 7 Nordeste 14 Este 0 -- -- 93
2020-05-15 00:00:00 12.9 8 Este 15 Este 0 -- -- 91
2020-05-14 23:00:00 13.2 6 Sudeste 17 Este 0 -- -- 90
2020-05-14 22:00:00 13.4 9 Este 15 Este 0 -- -- 88
2020-05-14 21:00:00 13.6 10 Nordeste 18 Nordeste 0 -- -- 86
2020-05-14 20:00:00 14.3 9 Este 24 Este 0 -- -- 80
2020-05-14 19:00:00 14.8 12 Este 22 Este 0 -- -- 78
2020-05-14 18:00:00 13.6 9 Este 29 Este 0.6 -- -- 85
2020-05-14 17:00:00 14.5 15 Nordeste 28 Este 0 -- -- 78
2020-05-14 16:00:00 15.5 17 Nordeste 27 Nordeste 0.4 -- -- 75
2020-05-14 15:00:00 13.1 6 Este 28 Este 1 -- -- 89
2020-05-14 14:00:00 14.9 17 Nordeste 26 Este 0 -- -- 76
2020-05-14 13:00:00 13.2 10 Nordeste 23 Este 0 -- -- 86
2020-05-14 12:00:00 12.3 10 Nordeste 17 Este 0 -- -- 88
2020-05-14 11:00:00 11.6 9 Este 16 Este 0 -- -- 91
2020-05-14 10:00:00 10.6 6 Este 12 Sudeste 0 -- -- 97
2020-05-14 09:00:00 10 3 Este 9 Nordeste 0 -- -- 100
2020-05-14 08:00:00 9.4 0 Calma 5 Este 0 -- -- 100
2020-05-14 07:00:00 9.3 3 Nordeste 5 Nordeste 0 -- -- 99
2020-05-14 06:00:00 9.6 0 Calma 6 Oeste 0 -- -- 99
2020-05-14 05:00:00 9.5 2 Nordeste 8 Oeste 0 -- -- 99
2020-05-14 04:00:00 9.3 5 Oeste 14 Sudoeste 0.8 -- -- 98
2020-05-14 03:00:00 9.7 12 Sudoeste 30 Sudoeste 2 -- -- 97
2020-05-14 02:00:00 10.7 13 Sudoeste 28 Sur 2 -- -- 98
2020-05-14 01:00:00 11.1 2 Sur 8 Este 0.4 -- -- 98
2020-05-14 00:00:00 11 3 Sudoeste 12 Oeste 2 -- -- 97
2020-05-13 23:00:00 10.9 7 Oeste 33 Sur 4.8 -- -- 97
2020-05-13 22:00:00 13.1 7 Nordeste 14 Este 0 -- -- 89
2020-05-13 21:00:00 13.5 5 Nordeste 18 Sudeste 0.2 -- -- 88
2020-05-13 20:00:00 14.2 9 Sur 35 Sur 0 -- -- 82
2020-05-13 19:00:00 17.6 13 Sudeste 24 Este 0 -- -- 60
2020-05-13 18:00:00 18.2 10 Sudeste 22 Sudeste 0 -- -- 55
2020-05-13 17:00:00 17.8 6 Sur 15 Sudoeste 0 -- -- 62
2020-05-13 16:00:00 16.7 7 Sur 14 Sur 0 -- -- 65
2020-05-13 15:00:00 16.4 10 Sur 16 Sur 0 -- -- 64
2020-05-13 14:00:00 16.7 10 Sur 16 Sur 0 -- -- 62
2020-05-13 13:00:00 16.3 9 Sur 23 Sur 0 -- -- 67
2020-05-13 12:00:00 14.7 10 Sur 23 Sur 0 -- -- 70
2020-05-13 11:00:00 14.1 15 Sur 29 Sur 0 -- -- 77
2020-05-13 10:00:00 13 10 Sudoeste 18 Sur 0 -- -- 92
2020-05-13 09:00:00 11.8 10 Sur 17 Sur 0 -- -- 99
2020-05-13 08:00:00 11.5 0 Calma 6 Este 0.4 -- -- 100
2020-05-13 07:00:00 10.9 2 Nordeste 6 Este 0 -- -- 99
2020-05-13 06:00:00 11 3 Nordeste 6 Nordeste 0.2 -- -- 98
2020-05-13 05:00:00 11.1 0 Calma 5 Sudeste 0 -- -- 96
2020-05-13 04:00:00 11 4 Sudeste 8 Sur 0 -- -- 97
2020-05-13 03:00:00 10.4 0 Calma 6 Sur 0 -- -- 96
2020-05-13 02:00:00 11.5 3 Sudeste 7 Sur 0 -- -- 94
2020-05-13 01:00:00 11.5 0 Calma 6 Este 0 -- -- 95
2020-05-13 00:00:00 11.5 3 Este 6 Este 0 -- -- 95
2020-05-12 23:00:00 11.6 3 Nordeste 7 Sudeste 0 -- -- 96
2020-05-12 22:00:00 11.6 5 Este 11 Este 0 -- -- 93
2020-05-12 21:00:00 12.4 5 Sudeste 17 Sudeste 0 -- -- 91
2020-05-12 20:00:00 13 9 Sudeste 15 Sudeste 0 -- -- 94
2020-05-12 19:00:00 13.7 6 Este 11 Este 0 -- -- 89
2020-05-12 18:00:00 14.6 2 Sudoeste 8 Sudoeste 0.2 -- -- 89
2020-05-12 17:00:00 13.6 0 Calma 12 Sudoeste 1.2 -- -- 90
2020-05-12 16:00:00 13 4 Sur 20 Sudeste 3.6 -- -- 91
2020-05-12 15:00:00 15.3 7 Sudeste 19 Sudeste 1 -- -- 83
2020-05-12 14:00:00 16.9 5 Sudeste 12 Nordeste 0 -- -- 78
2020-05-12 13:00:00 16.1 5 Este 11 Sur 0 -- -- 84
2020-05-12 12:00:00 14.4 5 Nordeste 17 Este 0.8 -- -- 95
2020-05-12 11:00:00 13.4 6 Este 17 Nordeste 0.2 -- -- 98
2020-05-12 10:00:00 13.2 7 Nordeste 11 Norte 0 -- -- 100
2020-05-12 09:00:00 12.5 3 Nordeste 12 Este 0 -- -- 100
2020-05-12 08:00:00 11.9 8 Nordeste 14 Este 0 -- -- 100
2020-05-12 07:00:00 11.2 5 Nordeste 10 Nordeste 0 -- -- 100
2020-05-12 06:00:00 11.4 2 Norte 9 Sur 0 -- -- 100
2020-05-12 05:00:00 11.1 3 Noroeste 9 Sudeste 0 -- -- 99
2020-05-12 04:00:00 12 3 Este 9 Nordeste 0 -- -- 98
2020-05-12 03:00:00 12.3 3 Nordeste 8 Este 0 -- -- 96
2020-05-12 02:00:00 12.3 0 Calma 6 Noroeste 0 -- -- 94
2020-05-12 01:00:00 12.9 4 Noroeste 7 Noroeste 0 -- -- 93
2020-05-12 00:00:00 13.5 2 Sudeste 6 Este 0 -- -- 97
2020-05-11 23:00:00 13.7 2 Nordeste 6 Nordeste 0 -- -- 96
2020-05-11 22:00:00 14.5 3 Nordeste 5 Nordeste 0.2 -- -- 93
2020-05-11 21:00:00 15.7 0 Calma 11 Sur 0 -- -- 88
2020-05-11 20:00:00 16.1 3 Oeste 14 Oeste 0 -- -- 84
2020-05-11 19:00:00 16.6 8 Sudoeste 23 Sur 2.4 -- -- 92
2020-05-11 18:00:00 16.8 9 Sudoeste 29 Sudoeste 0.2 -- -- 84
2020-05-11 17:00:00 16.1 6 Sudoeste 28 Sudoeste 0.6 -- -- 88
2020-05-11 16:00:00 17.6 10 Sur 26 Sudoeste 0.2 -- -- 74
2020-05-11 15:00:00 17.2 12 Sudoeste 30 Sur 0 -- -- 77
2020-05-11 14:00:00 16.9 14 Sur 30 Sur 0 -- -- 78
2020-05-11 13:00:00 17.1 16 Sur 27 Sur 0 -- -- 80
2020-05-11 12:00:00 14.9 12 Sur 23 Sur 0.2 -- -- 90
2020-05-11 11:00:00 13.6 8 Sur 17 Sudeste 0.6 -- -- 96
2020-05-11 10:00:00 13.4 9 Sudeste 20 Sudeste 0 -- -- 98
2020-05-11 09:00:00 12 9 Sudeste 17 Sudeste 1.6 -- -- 100
2020-05-11 08:00:00 11.7 7 Este 12 Este 0.4 -- -- 99
2020-05-11 07:00:00 11.6 4 Este 9 Sur 5.8 -- -- 98
2020-05-11 06:00:00 11.9 3 Sudeste 17 Sur 3.8 -- -- 96
2020-05-11 05:00:00 12 4 Sur 12 Sudoeste 0 -- -- 95
2020-05-11 04:00:00 12.2 8 Sudoeste 15 Sudoeste 0 -- -- 93
2020-05-11 03:00:00 12.7 5 Sudoeste 17 Sudoeste 0 -- -- 92
2020-05-11 02:00:00 12.8 8 Sudoeste 15 Sudoeste 0 -- -- 91
2020-05-11 01:00:00 13.1 8 Sudoeste 16 Sudoeste 0 -- -- 91
2020-05-11 00:00:00 13.2 11 Sudoeste 17 Sudoeste 0 -- -- 89
2020-05-10 23:00:00 13.3 4 Oeste 21 Oeste 0 -- -- 88
2020-05-10 22:00:00 14.4 15 Sudoeste 27 Sudoeste 0 -- -- 81
2020-05-10 21:00:00 15.9 6 Oeste 20 Sudoeste 0 -- -- 68
2020-05-10 20:00:00 17.5 11 Oeste 28 Sudoeste 0 -- -- 57
2020-05-10 19:00:00 17.4 9 Oeste 27 Sudoeste 0 -- -- 62
2020-05-10 18:00:00 18 12 Oeste 26 Oeste 0 -- -- 59
2020-05-10 17:00:00 18.2 15 Oeste 33 Oeste 0 -- -- 58
2020-05-10 16:00:00 17.5 16 Oeste 32 Oeste 0 -- -- 63
2020-05-10 15:00:00 16 11 Oeste 29 Sudoeste 0 -- -- 69
2020-05-10 14:00:00 15.2 19 Sudoeste 29 Sudoeste 0 -- -- 69
2020-05-10 13:00:00 13.3 15 Oeste 32 Sudoeste 0 -- -- 81
2020-05-10 12:00:00 12.8 16 Sudoeste 30 Sudoeste 0 -- -- 88
2020-05-10 11:00:00 10.7 10 Sudoeste 34 Sudoeste 2.8 -- -- 97
2020-05-10 10:00:00 12 7 Sudeste 11 Este 0.2 -- -- 99
2020-05-10 09:00:00 10.9 4 Este 6 Sudeste 0.4 -- -- 98
2020-05-10 08:00:00 10.3 0 Calma 4 Sudeste 0.2 -- -- 100
2020-05-10 07:00:00 10.1 0 Calma 8 Sudoeste 0 -- -- 99
2020-05-10 06:00:00 10.2 4 Oeste 10 Oeste 0.2 -- -- 100
2020-05-10 05:00:00 10.1 2 Oeste 7 Sudoeste 0 -- -- 100
2020-05-10 04:00:00 9.7 4 Sudoeste 8 Sudoeste 0 -- -- 99
2020-05-10 03:00:00 10.2 5 Sudoeste 9 Sudoeste 0 -- -- 98
2020-05-10 02:00:00 10.3 4 Oeste 8 Sudoeste 0 -- -- 96
2020-05-10 01:00:00 11 3 Noroeste 5 Oeste 0 -- -- 97
2020-05-10 00:00:00 11.5 0 Calma 11 Sudeste 0.2 -- -- 96
2020-05-09 23:00:00 11.9 0 Calma 26 Oeste 2.4 -- -- 94
2020-05-09 22:00:00 13.7 4 Sudeste 13 Sur 0 -- -- 96
2020-05-09 21:00:00 14.1 0 Calma 23 Sur 0.4 -- -- 92
2020-05-09 20:00:00 14.4 10 Sudoeste 15 Sudoeste 0.2 -- -- 89
2020-05-09 19:00:00 15.5 9 Sudoeste 17 Sudoeste 0.2 -- -- 83
2020-05-09 18:00:00 13.8 14 Sudoeste 38 Sudoeste 1.6 -- -- 88
2020-05-09 17:00:00 18.3 16 Sudoeste 27 Sudoeste 0 -- -- 56
2020-05-09 16:00:00 20.4 18 Sur 30 Sur 0 -- -- 48
2020-05-09 15:00:00 19.3 11 Sur 28 Sur 0 -- -- 58
2020-05-09 14:00:00 18 13 Sudoeste 28 Sudoeste 0 -- -- 65
2020-05-09 13:00:00 17.7 14 Sudoeste 25 Sudoeste 0 -- -- 70
2020-05-09 12:00:00 16.1 6 Sudoeste 14 Sudoeste 0 -- -- 82
2020-05-09 11:00:00 16.7 6 Sudoeste 12 Oeste 0 -- -- 80
2020-05-09 10:00:00 15.5 0 Calma 15 Sur 0 -- -- 87
2020-05-09 09:00:00 14 0 Calma 5 Oeste 0 -- -- 93
2020-05-09 08:00:00 12.7 0 Calma 5 Sudoeste 0 -- -- 96
2020-05-09 07:00:00 12.5 4 Sudoeste 10 Oeste 0 -- -- 94
2020-05-09 06:00:00 13.4 9 Sudoeste 18 Sudoeste 0 -- -- 92
2020-05-09 05:00:00 13.7 7 Oeste 19 Oeste 0 -- -- 93
2020-05-09 04:00:00 14 7 Sudoeste 10 Sudoeste 0 -- -- 93
2020-05-09 03:00:00 14.6 3 Sudoeste 7 Sudoeste 0 -- -- 91
2020-05-09 02:00:00 14.8 4 Oeste 13 Sudoeste 0 -- -- 89
2020-05-09 01:00:00 15.7 6 Oeste 12 Oeste 0 -- -- 84
2020-05-09 00:00:00 17.1 7 Sudoeste 14 Sudoeste 0 -- -- 76
2020-05-08 23:00:00 18.4 8 Sudoeste 16 Sudoeste 0 -- -- 66
2020-05-08 22:00:00 19.3 6 Oeste 20 Sudoeste 0 -- -- 66
2020-05-08 21:00:00 21.8 12 Sudoeste 27 Sudoeste 0 -- -- 59
2020-05-08 20:00:00 23.8 16 Sudoeste 25 Sudoeste 0 -- -- 52
2020-05-08 19:00:00 25.1 13 Sudoeste 21 Sudoeste 0 -- -- 49
2020-05-08 18:00:00 26.4 11 Sudoeste 22 Sudoeste 0 -- -- 45
2020-05-08 17:00:00 25.7 12 Sudoeste 28 Sudoeste 0 -- -- 46
2020-05-08 16:00:00 25.7 4 Sur 19 Sur 0 -- -- 51
2020-05-08 15:00:00 25.9 11 Sur 23 Sudoeste 0 -- -- 47
2020-05-08 14:00:00 25.1 9 Sur 19 Este 0 -- -- 51
2020-05-08 13:00:00 24.4 10 Este 22 Nordeste 0 -- -- 55
2020-05-08 12:00:00 22.5 10 Nordeste 22 Nordeste 0 -- -- 65
2020-05-08 11:00:00 20.9 14 Nordeste 20 Nordeste 0 -- -- 63
2020-05-08 10:00:00 19.6 12 Nordeste 20 Nordeste 0 -- -- 66
2020-05-08 09:00:00 17.8 6 Nordeste 12 Nordeste 0 -- -- 71
2020-05-08 08:00:00 16.6 0 Calma 7 Sudoeste 0 -- -- 76
2020-05-08 07:00:00 17.4 6 Sudoeste 9 Sudoeste 0 -- -- 73
2020-05-08 06:00:00 18.2 3 Noroeste 12 Norte 0 -- -- 71
2020-05-08 05:00:00 17.6 5 Noroeste 8 Noroeste 0 -- -- 76
2020-05-08 04:00:00 17.6 4 Oeste 14 Sudoeste 0 -- -- 80
2020-05-08 03:00:00 17.9 4 Nordeste 15 Sudoeste 0 -- -- 82
2020-05-08 02:00:00 17.8 3 Nordeste 14 Sur 0 -- -- 84
2020-05-08 01:00:00 19.2 4 Nordeste 8 Sur 0 -- -- 77
2020-05-08 00:00:00 20.7 4 Noroeste 8 Sur 0 -- -- 72
2020-05-07 23:00:00 21.3 3 Oeste 6 Sudoeste 0 -- -- 70
2020-05-07 22:00:00 22.8 4 Sudoeste 5 Oeste 0 -- -- 63
2020-05-07 21:00:00 23.9 5 Sudoeste 11 Sudoeste 0 -- -- 61
2020-05-07 20:00:00 26.2 5 Oeste 13 Este 0 -- -- 53
2020-05-07 19:00:00 27.5 4 Nordeste 18 Sudeste 0 -- -- 44
2020-05-07 18:00:00 27.1 9 Sudeste 23 Sudeste 0 -- -- 48
2020-05-07 17:00:00 26.8 13 Este 30 Este 0 -- -- 53
2020-05-07 16:00:00 25.5 8 Nordeste 22 Nordeste 0 -- -- 51
2020-05-07 15:00:00 24.5 8 Este 32 Este 0 -- -- 54
2020-05-07 14:00:00 24.9 19 Este 35 Este 0 -- -- 51
2020-05-07 13:00:00 23.2 24 Nordeste 38 Este 0 -- -- 57
2020-05-07 12:00:00 21 20 Nordeste 43 Nordeste 0 -- -- 61
2020-05-07 11:00:00 18.7 21 Este 35 Nordeste 0 -- -- 66
2020-05-07 10:00:00 16.6 11 Este 26 Este 0 -- -- 67
2020-05-07 09:00:00 15.6 14 Este 26 Nordeste 0 -- -- 68
2020-05-07 08:00:00 15 17 Nordeste 30 Nordeste 0 -- -- 69
2020-05-07 07:00:00 14.6 15 Nordeste 30 Nordeste 0 -- -- 73
2020-05-07 06:00:00 14.3 14 Nordeste 20 Este 0 -- -- 78
2020-05-07 05:00:00 15.6 9 Este 14 Nordeste 0 -- -- 67
2020-05-07 04:00:00 16.3 7 Nordeste 14 Nordeste 0 -- -- 65
2020-05-07 03:00:00 17.5 5 Nordeste 15 Norte 0 -- -- 60
2020-05-07 02:00:00 18.8 5 Norte 14 Oeste 0 -- -- 53
2020-05-07 01:00:00 18.5 2 Sudeste 16 Noroeste 0 -- -- 50
2020-05-07 00:00:00 18.2 9 Noroeste 14 Noroeste 0 -- -- 55
2020-05-06 23:00:00 18.7 5 Noroeste 12 Noroeste 0 -- -- 52
2020-05-06 22:00:00 18.8 4 Oeste 10 Oeste 0 -- -- 53
2020-05-06 21:00:00 20.2 7 Noroeste 11 Noroeste 0 -- -- 51
2020-05-06 20:00:00 22.1 4 Noroeste 19 Sudoeste 0 -- -- 49
2020-05-06 19:00:00 23.8 8 Sudoeste 15 Sudoeste 0 -- -- 45
2020-05-06 18:00:00 24.3 8 Sudoeste 17 Sudoeste 0 -- -- 42
2020-05-06 17:00:00 24.2 6 Sur 17 Sudeste 0 -- -- 46
2020-05-06 16:00:00 23.6 7 Sudoeste 19 Sudoeste 0 -- -- 47
2020-05-06 15:00:00 23 7 Sudeste 15 Sudoeste 0 -- -- 44
2020-05-06 14:00:00 22.2 4 Sudoeste 14 Sudoeste 0 -- -- 53
2020-05-06 13:00:00 21.3 5 Sudoeste 13 Sudoeste 0 -- -- 61
2020-05-06 12:00:00 19.1 4 Sur 10 Sudoeste 0 -- -- 68
2020-05-06 11:00:00 16.5 4 Sur 7 Sur 0 -- -- 78
2020-05-06 10:00:00 13.6 4 Nordeste 6 Nordeste 0 -- -- 90
2020-05-06 09:00:00 11.7 0 Calma 3 Este 0 -- -- 94
2020-05-06 08:00:00 10.2 0 Calma 4 Este 0 -- -- 93
2020-05-06 07:00:00 10.4 0 Calma 4 Sudoeste 0 -- -- 89
2020-05-06 06:00:00 11.4 2 Oeste 6 Oeste 0 -- -- 89
2020-05-06 05:00:00 12.6 3 Sudoeste 21 Sudoeste 0 -- -- 82
2020-05-06 04:00:00 14.1 8 Sudoeste 19 Sudoeste 0 -- -- 77
2020-05-06 03:00:00 14.4 6 Sudoeste 19 Sudoeste 0 -- -- 75
2020-05-06 02:00:00 13.9 6 Oeste 12 Oeste 0 -- -- 72
2020-05-06 01:00:00 14.9 4 Oeste 6 Sudoeste 0 -- -- 65
2020-05-06 00:00:00 15.8 3 Oeste 8 Oeste 0 -- -- 62
2020-05-05 23:00:00 16.3 6 Oeste 9 Oeste 0 -- -- 59
2020-05-05 22:00:00 17.2 5 Oeste 8 Oeste 0 -- -- 58
2020-05-05 21:00:00 19.4 5 Sudoeste 14 Sudoeste 0 -- -- 52
2020-05-05 20:00:00 20.5 8 Oeste 18 Oeste 0 -- -- 47
2020-05-05 19:00:00 21 10 Noroeste 22 Oeste 0 -- -- 49
2020-05-05 18:00:00 22.8 8 Sudoeste 20 Sudoeste 0 -- -- 38
2020-05-05 17:00:00 22.7 6 Sudoeste 19 Sudoeste 0 -- -- 41
2020-05-05 16:00:00 22.2 9 Sudoeste 22 Sudoeste 0 -- -- 44
2020-05-05 15:00:00 21.5 11 Sur 21 Sur 0 -- -- 49
2020-05-05 14:00:00 20.4 4 Sur 15 Sudeste 0 -- -- 55
2020-05-05 13:00:00 18.3 6 Nordeste 13 Noroeste 0 -- -- 66
2020-05-05 12:00:00 17.8 6 Sur 13 Sudoeste 0 -- -- 70
2020-05-05 11:00:00 15.7 4 Sudoeste 9 Sudoeste 0 -- -- 79
2020-05-05 10:00:00 14.1 3 Noroeste 6 Oeste 0 -- -- 88
2020-05-05 09:00:00 11.1 2 Nordeste 5 Este 0 -- -- 94
2020-05-05 08:00:00 10 4 Nordeste 5 Nordeste 0 -- -- 94
2020-05-05 07:00:00 10.5 2 Nordeste 5 Sudoeste 0 -- -- 92
2020-05-05 06:00:00 11.9 4 Oeste 7 Oeste 0 -- -- 87
2020-05-05 05:00:00 12.1 3 Oeste 6 Oeste 0 -- -- 84
2020-05-05 04:00:00 12.2 4 Oeste 7 Oeste 0 -- -- 82
2020-05-05 03:00:00 12.5 4 Oeste 13 Sudoeste 0 -- -- 81
2020-05-05 02:00:00 13.6 9 Sudoeste 16 Sudoeste 0 -- -- 76
2020-05-05 01:00:00 13.6 6 Oeste 14 Sudoeste 0 -- -- 74
2020-05-05 00:00:00 14.8 10 Oeste 18 Sudoeste 0 -- -- 69
2020-05-04 23:00:00 15.9 8 Oeste 17 Oeste 0 -- -- 64
2020-05-04 22:00:00 17.6 11 Oeste 23 Oeste 0 -- -- 64
2020-05-04 21:00:00 19.9 12 Oeste 32 Oeste 0 -- -- 63
2020-05-04 20:00:00 21.7 18 Sudoeste 38 Sudoeste 0 -- -- 58
2020-05-04 19:00:00 23.1 25 Sudoeste 45 Sudoeste 0 -- -- 51
2020-05-04 18:00:00 23.6 27 Sudoeste 45 Sudoeste 0 -- -- 52
2020-05-04 17:00:00 24 26 Sudoeste 46 Sudoeste 0 -- -- 56
2020-05-04 16:00:00 24.7 18 Sudoeste 36 Sur 0 -- -- 58
2020-05-04 15:00:00 22.8 22 Sudoeste 36 Sudoeste 0 -- -- 59
2020-05-04 14:00:00 23.8 20 Sudoeste 32 Sudoeste 0 -- -- 55
2020-05-04 13:00:00 25.3 9 Este 20 Este 0 -- -- 55
2020-05-04 12:00:00 23.5 8 Nordeste 21 Este 0 -- -- 57
2020-05-04 11:00:00 21.4 12 Nordeste 24 Nordeste 0 -- -- 62
2020-05-04 10:00:00 19.3 15 Nordeste 27 Nordeste 0 -- -- 65
2020-05-04 09:00:00 18.7 17 Nordeste 29 Nordeste 0 -- -- 65
2020-05-04 08:00:00 18.7 19 Nordeste 29 Nordeste 0 -- -- 65
2020-05-04 07:00:00 19.4 17 Nordeste 24 Nordeste 0 -- -- 62
2020-05-04 06:00:00 19.5 12 Nordeste 21 Nordeste 0 -- -- 63
2020-05-04 05:00:00 19.8 10 Nordeste 20 Nordeste 0 -- -- 62
2020-05-04 04:00:00 19.8 13 Nordeste 20 Nordeste 0 -- -- 65
2020-05-04 03:00:00 21 12 Nordeste 21 Este 0 -- -- 61
2020-05-04 02:00:00 21.7 11 Nordeste 16 Este 0 -- -- 57
2020-05-04 01:00:00 22 9 Nordeste 13 Nordeste 0 -- -- 56
2020-05-04 00:00:00 22.5 9 Nordeste 20 Nordeste 0 -- -- 54
2020-05-03 23:00:00 23.3 11 Este 23 Este 0 -- -- 51
2020-05-03 22:00:00 23.8 14 Nordeste 23 Este 0 -- -- 51
2020-05-03 21:00:00 24.3 11 Este 20 Este 0 -- -- 55
2020-05-03 20:00:00 26.5 13 Este 22 Este 0 -- -- 52
2020-05-03 19:00:00 28.7 10 Este 19 Este 0 -- -- 37
2020-05-03 18:00:00 29.2 10 Sudeste 24 Sudeste 0 -- -- 34
2020-05-03 17:00:00 29.3 10 Sudeste 24 Sudeste 0 -- -- 33
2020-05-03 16:00:00 28.1 14 Este 27 Este 0 -- -- 54
2020-05-03 15:00:00 27.1 14 Nordeste 26 Nordeste 0 -- -- 57
2020-05-03 14:00:00 25.6 15 Nordeste 27 Nordeste 0 -- -- 61
2020-05-03 13:00:00 24.1 15 Nordeste 25 Este 0 -- -- 62
2020-05-03 12:00:00 22.6 14 Nordeste 26 Este 0 -- -- 68
2020-05-03 11:00:00 20.5 15 Nordeste 25 Nordeste 0 -- -- 72
2020-05-03 10:00:00 18 18 Nordeste 26 Nordeste 0 -- -- 78
2020-05-03 09:00:00 16.2 15 Nordeste 22 Nordeste 0 -- -- 83
2020-05-03 08:00:00 14.1 9 Nordeste 14 Nordeste 0 -- -- 90
2020-05-03 07:00:00 14.2 10 Nordeste 14 Nordeste 0 -- -- 87
2020-05-03 06:00:00 14.4 7 Nordeste 10 Nordeste 0 -- -- 88
2020-05-03 05:00:00 15 5 Este 8 Este 0 -- -- 86
2020-05-03 04:00:00 15 6 Nordeste 10 Nordeste 0 -- -- 86
2020-05-03 03:00:00 15.9 6 Nordeste 10 Este 0 -- -- 84
2020-05-03 02:00:00 17.3 3 Nordeste 13 Oeste 0 -- -- 79
2020-05-03 01:00:00 17.1 4 Nordeste 9 Este 0 -- -- 81
2020-05-03 00:00:00 18.5 4 Este 10 Este 0 -- -- 75
2020-05-02 23:00:00 19.9 5 Noroeste 9 Noroeste 0 -- -- 69
2020-05-02 22:00:00 20.7 4 Noroeste 7 Noroeste 0 -- -- 66
2020-05-02 21:00:00 22.4 4 Noroeste 10 Sudoeste 0 -- -- 63
2020-05-02 20:00:00 23.9 6 Oeste 15 Oeste 0 -- -- 57
2020-05-02 19:00:00 25.2 6 Oeste 15 Sudoeste 0 -- -- 52
2020-05-02 18:00:00 25.7 7 Sudoeste 15 Oeste 0 -- -- 52
2020-05-02 17:00:00 25.5 6 Sudoeste 16 Sudoeste 0 -- -- 54
2020-05-02 16:00:00 24.6 8 Sudoeste 18 Oeste 0 -- -- 57
2020-05-02 15:00:00 23.2 7 Sudoeste 18 Sudoeste 0 -- -- 58
2020-05-02 14:00:00 22.5 6 Sudoeste 18 Oeste 0 -- -- 67
2020-05-02 13:00:00 21.3 4 Sudoeste 16 Sudoeste 0 -- -- 66
2020-05-02 12:00:00 19.8 6 Sudoeste 14 Sudoeste 0 -- -- 72
2020-05-02 11:00:00 18 0 Calma 8 Sur 0 -- -- 81
2020-05-02 10:00:00 15.4 3 Este 6 Este 0 -- -- 90
2020-05-02 09:00:00 12.6 4 Nordeste 5 Nordeste 0 -- -- 100
2020-05-02 08:00:00 11.6 3 Nordeste 5 Este 0 -- -- 99
2020-05-02 07:00:00 12.1 3 Nordeste 5 Sudeste 0 -- -- 98
2020-05-02 06:00:00 12.6 3 Sudeste 4 Sudeste 0 -- -- 98
2020-05-02 05:00:00 12.4 0 Calma 4 Norte 0 -- -- 96
2020-05-02 04:00:00 13.2 0 Calma 8 Sudoeste 0 -- -- 93
2020-05-02 03:00:00 13.7 6 Oeste 10 Oeste 0 -- -- 93
2020-05-02 02:00:00 14.5 5 Oeste 15 Sudoeste 0 -- -- 90
2020-05-02 01:00:00 15 11 Sudoeste 15 Sudoeste 0 -- -- 89
2020-05-02 00:00:00 15.3 9 Sudoeste 12 Sudoeste 0 -- -- 87
2020-05-01 23:00:00 16 6 Oeste 9 Oeste 0 -- -- 83
2020-05-01 22:00:00 16.8 5 Oeste 12 Sudoeste 0 -- -- 82
2020-05-01 21:00:00 18.7 9 Sudoeste 19 Sudoeste 0 -- -- 74
2020-05-01 20:00:00 20.1 12 Sudoeste 22 Sudoeste 0 -- -- 70
2020-05-01 19:00:00 21.2 12 Oeste 22 Sudoeste 0 -- -- 65
2020-05-01 18:00:00 20.9 12 Sudoeste 24 Sudoeste 0 -- -- 66
2020-05-01 17:00:00 20.9 15 Sudoeste 27 Sudoeste 0 -- -- 68
2020-05-01 16:00:00 20.1 15 Sudoeste 26 Sudoeste 0 -- -- 71
2020-05-01 15:00:00 18.5 12 Sudoeste 22 Sudoeste 0 -- -- 81
2020-05-01 14:00:00 16.6 10 Sudoeste 18 Sudoeste 0 -- -- 89
2020-05-01 13:00:00 15.9 9 Sudoeste 20 Sudoeste 0 -- -- 93
2020-05-01 12:00:00 15.9 10 Oeste 18 Sudoeste 0 -- -- 91
2020-05-01 11:00:00 14.3 10 Sudoeste 17 Sudoeste 0 -- -- 95
2020-05-01 10:00:00 13.4 8 Sudoeste 19 Sudoeste 0 -- -- 97
2020-05-01 09:00:00 13 10 Sudoeste 24 Sudoeste 0 -- -- 96
2020-05-01 08:00:00 13.3 12 Sudoeste 20 Sudoeste 0 -- -- 88
2020-05-01 07:00:00 13.3 12 Sudoeste 18 Sudoeste 0 -- -- 88
2020-05-01 06:00:00 13 8 Oeste 19 Oeste 0 -- -- 88
2020-05-01 05:00:00 12.6 7 Oeste 18 Oeste 0 -- -- 89
2020-05-01 04:00:00 11.1 3 Oeste 9 Oeste 0 -- -- 93
2020-05-01 03:00:00 12.1 7 Sudoeste 11 Sudoeste 0 -- -- 90
2020-05-01 02:00:00 12.8 4 Oeste 16 Sudoeste 0 -- -- 87
2020-05-01 01:00:00 14 10 Sudoeste 17 Sudoeste 0 -- -- 83
2020-05-01 00:00:00 14.9 6 Sudoeste 13 Oeste 0 -- -- 81
2020-04-30 23:00:00 15 6 Oeste 16 Oeste 0 -- -- 81
2020-04-30 22:00:00 15.3 9 Sudoeste 15 Oeste 0 -- -- 78
2020-04-30 21:00:00 15.8 10 Sudoeste 22 Sudoeste 0 -- -- 75
2020-04-30 20:00:00 16.3 8 Sudoeste 21 Oeste 0 -- -- 73
2020-04-30 19:00:00 16.5 13 Sudoeste 30 Oeste 0 -- -- 69
2020-04-30 18:00:00 17.3 14 Sudoeste 31 Sudoeste 0 -- -- 64
2020-04-30 17:00:00 17.1 19 Sudoeste 31 Sudoeste 0 -- -- 64
2020-04-30 16:00:00 17.5 15 Sudoeste 31 Sudoeste 0 -- -- 65
2020-04-30 15:00:00 16 17 Sudoeste 35 Sudoeste 0 -- -- 71
2020-04-30 14:00:00 15.4 15 Oeste 32 Sudoeste 0 -- -- 72
2020-04-30 13:00:00 15.2 13 Sudoeste 28 Sudoeste 0 -- -- 75
2020-04-30 12:00:00 14.5 15 Sudoeste 28 Sudoeste 0 -- -- 74
2020-04-30 11:00:00 13.4 13 Sudoeste 22 Oeste 0 -- -- 84
2020-04-30 10:00:00 12 12 Sudoeste 23 Sudoeste 0 -- -- 90
2020-04-30 09:00:00 11.3 13 Sudoeste 20 Sudoeste 0 -- -- 93
2020-04-30 08:00:00 10.7 8 Oeste 19 Sudoeste 0 -- -- 94
2020-04-30 07:00:00 10.9 9 Oeste 22 Oeste 0 -- -- 92
2020-04-30 06:00:00 11.3 11 Sudoeste 24 Sudoeste 0 -- -- 91
2020-04-30 05:00:00 11.5 10 Sudoeste 21 Sudoeste 0 -- -- 89
2020-04-30 04:00:00 11.8 8 Sudoeste 15 Sudoeste 0 -- -- 90
2020-04-30 03:00:00 11.8 5 Sudoeste 13 Sudoeste 0 -- -- 91
2020-04-30 02:00:00 11.9 4 Sudoeste 8 Oeste 0 -- -- 90
2020-04-30 01:00:00 11.6 0 Calma 10 Oeste 0 -- -- 86
2020-04-30 00:00:00 13 6 Oeste 14 Sudoeste 0 -- -- 88
2020-04-29 23:00:00 13.5 4 Oeste 22 Sudoeste 0 -- -- 93
2020-04-29 22:00:00 13.6 12 Sudoeste 19 Sudoeste 0 -- -- 95
2020-04-29 21:00:00 13.9 12 Sudoeste 23 Sudoeste 0 -- -- 93
2020-04-29 20:00:00 14.5 9 Sudoeste 22 Sudoeste 0.2 -- -- 95
2020-04-29 19:00:00 14.4 13 Sudoeste 28 Sudoeste 0 -- -- 92
2020-04-29 18:00:00 15.2 15 Oeste 39 Sudoeste 0 -- -- 84
2020-04-29 17:00:00 16.7 17 Sudoeste 31 Sudoeste 0 -- -- 67
2020-04-29 16:00:00 16.8 18 Sudoeste 33 Sudoeste 0 -- -- 65
2020-04-29 15:00:00 18.3 18 Sudoeste 33 Sudoeste 0 -- -- 59
2020-04-29 14:00:00 16.8 17 Sur 32 Sudoeste 0 -- -- 59
2020-04-29 13:00:00 16.1 9 Sudoeste 24 Sudoeste 0 -- -- 61
2020-04-29 12:00:00 14.2 10 Sudoeste 24 Sudoeste 0 -- -- 74
2020-04-29 11:00:00 13 10 Sudoeste 19 Sudoeste 0 -- -- 81
2020-04-29 10:00:00 11.4 9 Oeste 20 Sudoeste 0 -- -- 86
2020-04-29 09:00:00 9 3 Oeste 6 Oeste 0 -- -- 98
2020-04-29 08:00:00 7 0 Calma 6 Sudeste 0 -- -- 96
2020-04-29 07:00:00 8 4 Oeste 8 Sudoeste 0 -- -- 96
2020-04-29 06:00:00 8.1 4 Oeste 5 Sudoeste 0 -- -- 97
2020-04-29 05:00:00 8.2 2 Noroeste 8 Sudoeste 0 -- -- 94
2020-04-29 04:00:00 9 7 Sudoeste 10 Oeste 0 -- -- 92
2020-04-29 03:00:00 9.3 7 Oeste 14 Sudoeste 0 -- -- 90
2020-04-29 02:00:00 10 8 Sudoeste 17 Sudoeste 0 -- -- 85
2020-04-29 01:00:00 10.1 5 Sudoeste 14 Sudoeste 0 -- -- 88
2020-04-29 00:00:00 11.3 9 Sudoeste 14 Sudoeste 0 -- -- 83
2020-04-28 23:00:00 11.7 5 Oeste 12 Oeste 0 -- -- 81
2020-04-28 22:00:00 12.5 6 Oeste 19 Oeste 0 -- -- 76
2020-04-28 21:00:00 14.3 10 Oeste 20 Sudoeste 0 -- -- 71
2020-04-28 20:00:00 15.2 14 Sudoeste 28 Sudoeste 0 -- -- 63
2020-04-28 19:00:00 16.3 15 Sudoeste 27 Sudoeste 0 -- -- 59
2020-04-28 18:00:00 15.6 10 Oeste 30 Oeste 0.2 -- -- 66
2020-04-28 17:00:00 15.5 10 Oeste 23 Sudoeste 0 -- -- 63
2020-04-28 16:00:00 16.2 13 Sudoeste 26 Sudoeste 0 -- -- 57
2020-04-28 15:00:00 16.6 15 Sudoeste 30 Sudoeste 0 -- -- 57
2020-04-28 14:00:00 14.4 11 Sudoeste 23 Sudoeste 0 -- -- 66
2020-04-28 13:00:00 14.9 9 Sudoeste 19 Sudoeste 0 -- -- 64
2020-04-28 12:00:00 14 14 Sudoeste 22 Sudoeste 0 -- -- 73
2020-04-28 11:00:00 12.8 11 Sudoeste 18 Sudoeste 0 -- -- 81
2020-04-28 10:00:00 10.3 10 Sudoeste 17 Sudoeste 0 -- -- 95
2020-04-28 09:00:00 8.3 4 Sudoeste 9 Sudoeste 0 -- -- 100
2020-04-28 08:00:00 6.7 2 Oeste 9 Sudoeste 0 -- -- 99
2020-04-28 07:00:00 7 6 Sudoeste 10 Sudoeste 0 -- -- 99
2020-04-28 06:00:00 7.5 3 Sudoeste 7 Sudoeste 0 -- -- 99
2020-04-28 05:00:00 7.9 5 Sudoeste 10 Sudoeste 0 -- -- 98
2020-04-28 04:00:00 8.3 4 Oeste 10 Sudoeste 0 -- -- 98
2020-04-28 03:00:00 9.3 6 Sudoeste 9 Oeste 0 -- -- 95
2020-04-28 02:00:00 9.5 5 Oeste 12 Sudoeste 0 -- -- 95
2020-04-28 01:00:00 10.3 5 Sudoeste 15 Oeste 0 -- -- 90
2020-04-28 00:00:00 10.6 3 Oeste 8 Sudoeste 0 -- -- 88
2020-04-27 23:00:00 11.8 5 Sudoeste 13 Sudoeste 0 -- -- 84
2020-04-27 22:00:00 12.5 5 Sudoeste 9 Noroeste 0 -- -- 79
2020-04-27 21:00:00 13.3 5 Oeste 29 Oeste 0 -- -- 71
2020-04-27 20:00:00 14.7 12 Noroeste 24 Oeste 0 -- -- 67
2020-04-27 19:00:00 16.4 7 Oeste 21 Oeste 0 -- -- 64
2020-04-27 18:00:00 14.7 6 Oeste 35 Oeste 0 -- -- 80
2020-04-27 17:00:00 16.4 10 Oeste 24 Sudoeste 0 -- -- 59
2020-04-27 16:00:00 17.7 14 Sudoeste 29 Sudoeste 0 -- -- 55
2020-04-27 15:00:00 16.1 12 Sudoeste 24 Sudoeste 0 -- -- 61
2020-04-27 14:00:00 15.6 8 Oeste 19 Sudoeste 0 -- -- 67
2020-04-27 13:00:00 14.7 11 Oeste 21 Sudoeste 0 -- -- 64
2020-04-27 12:00:00 14.6 11 Sudoeste 19 Sudoeste 0 -- -- 70
2020-04-27 11:00:00 13.3 12 Sudoeste 20 Sudoeste 0 -- -- 79
2020-04-27 10:00:00 11.9 9 Sudoeste 14 Sudoeste 0 -- -- 86
2020-04-27 09:00:00 10.4 3 Sudoeste 7 Oeste 0 -- -- 94
2020-04-27 08:00:00 9.1 4 Oeste 10 Sudoeste 0 -- -- 97
2020-04-27 07:00:00 9.4 5 Oeste 9 Oeste 0 -- -- 95
2020-04-27 06:00:00 10.1 4 Sudoeste 6 Sudoeste 0 -- -- 93
2020-04-27 05:00:00 10.7 4 Sudoeste 8 Sudoeste 0 -- -- 93
2020-04-27 04:00:00 10.7 5 Sudoeste 10 Sudoeste 0 -- -- 91
2020-04-27 03:00:00 10.9 6 Sudoeste 9 Sudoeste 0 -- -- 89
2020-04-27 02:00:00 11.6 6 Sudoeste 15 Sudoeste 0 -- -- 87
2020-04-27 01:00:00 12 7 Sudoeste 12 Sudoeste 0 -- -- 89
2020-04-27 00:00:00 12.3 4 Sudoeste 12 Sudoeste 0 -- -- 87
2020-04-26 23:00:00 12.8 7 Sudoeste 23 Oeste 0 -- -- 83
2020-04-26 22:00:00 13.8 13 Sudoeste 24 Sudoeste 0 -- -- 75
2020-04-26 21:00:00 14.7 6 Sudoeste 16 Sudoeste 0 -- -- 72
2020-04-26 20:00:00 15.2 10 Sudoeste 22 Sudoeste 0 -- -- 69
2020-04-26 19:00:00 15.6 12 Sudoeste 22 Oeste 0 -- -- 64
2020-04-26 18:00:00 15.7 10 Oeste 24 Sudoeste 0 -- -- 67
2020-04-26 17:00:00 17.5 13 Sudoeste 35 Sudoeste 0 -- -- 56
2020-04-26 16:00:00 17.1 9 Sudoeste 24 Oeste 0 -- -- 59
2020-04-26 15:00:00 17.5 12 Sudoeste 25 Sudoeste 0 -- -- 57
2020-04-26 14:00:00 17.1 10 Sudoeste 23 Sudoeste 0 -- -- 64
2020-04-26 13:00:00 15.8 9 Sudoeste 18 Sur 0 -- -- 68
2020-04-26 12:00:00 14 5 Sur 16 Sur 0 -- -- 76
2020-04-26 11:00:00 11.2 7 Sudoeste 15 Sudoeste 0 -- -- 87
2020-04-26 10:00:00 -- 0 Calma -- -- 0 -- -- --
2020-04-26 09:00:00 9.3 4 Sudoeste 8 Sudoeste 0 -- -- 95
2020-04-26 08:00:00 8.8 5 Sudoeste 15 Sudoeste 0 -- -- 96
2020-04-26 07:00:00 9.3 10 Sudoeste 17 Sudoeste 0 -- -- 95
2020-04-26 06:00:00 9.3 4 Sudoeste 15 Oeste 0 -- -- 96
2020-04-26 05:00:00 9.9 8 Oeste 22 Oeste 0 -- -- 92
2020-04-26 04:00:00 10.8 12 Sudoeste 30 Sudoeste 0 -- -- 90
2020-04-26 03:00:00 12.1 18 Sudoeste 30 Sudoeste 0 -- -- 86
2020-04-26 02:00:00 12.4 13 Sudoeste 26 Sudoeste 0 -- -- 87
2020-04-26 01:00:00 13.1 15 Sudoeste 25 Sudoeste 0 -- -- 87
2020-04-26 00:00:00 13.5 11 Sudoeste 20 Sudoeste 0 -- -- 88